Terminal Aerodrome Forecast
Issued by NWS Charleston, WV

Current Version | Previous Version | Graphics & Text | Print | Product List | Glossary On
Versions: 1 2 3 4 5 6 7 8 9 10 11 12 13 14 15 16 17 18 19 20 21 22 23 24 25 26 27 28 29
000
FTUS41 KRLX 201200 AAA
TAFCRW
TAF AMD
KCRW 201257Z 2013/2112 00000KT 4SM SHRA BR OVC025
     FM201500 16005KT P6SM BKN035
     FM210500 00000KT 5SM BR SCT045
     FM210800 00000KT 2SM BR SCT001 SCT050
     FM211000 00000KT 1/2SM FG BKN001=

USA.gov is the U.S. government's official web portal to all federal, state and local government web resources and services.